Time;durP1;ratioP1;P1;durP2;ratioP2;P2;SDS_P1;SDS_P2;PMS_P1;PMS_P2;Temp;Humidity;BMP_temperature;BMP_pressure;BME280_temperature;BME280_humidity;BME280_pressure;Samples;Min_cycle;Max_cycle;Signal;HPM_P1;HPM_P2
2023/06/21 00:00:36;;;;;;;57.47;51.83;;;;;;;20.42;100.00;100535.00;4973332;28;20497;-72
2023/06/21 00:03:06;;;;;;;60.40;54.23;;;;;;;20.42;100.00;100526.75;4980486;28;20865;-72
2023/06/21 00:05:38;;;;;;;59.30;52.90;;;;;;;20.44;100.00;100530.03;4977518;28;20907;-71
2023/06/21 00:08:07;;;;;;;59.13;53.03;;;;;;;20.33;100.00;100530.03;4983140;28;20420;-72
2023/06/21 00:10:36;;;;;;;57.77;52.23;;;;;;;20.33;100.00;100541.03;5014754;23;20516;-67
2023/06/21 00:13:05;;;;;;;61.07;54.93;;;;;;;20.32;100.00;100539.41;4974221;28;20431;-71
2023/06/21 00:15:36;;;;;;;59.57;53.80;;;;;;;20.29;100.00;100545.38;4971791;28;20875;-69
2023/06/21 00:18:06;;;;;;;57.20;51.80;;;;;;;20.39;100.00;100547.34;4952961;28;20436;-71
2023/06/21 00:20:37;;;;;;;53.70;48.50;;;;;;;20.40;100.00;100546.25;4952522;28;20793;-70
2023/06/21 00:23:08;;;;;;;57.97;52.07;;;;;;;20.29;100.00;100545.38;4957958;28;20453;-70
2023/06/21 00:25:37;;;;;;;59.97;54.13;;;;;;;20.27;100.00;100558.59;4961913;28;20545;-69
2023/06/21 00:28:07;;;;;;;59.13;53.10;;;;;;;20.34;100.00;100559.16;4957279;28;20446;-71
2023/06/21 00:30:37;;;;;;;55.40;50.10;;;;;;;20.23;100.00;100557.50;4953194;28;20418;-69
2023/06/21 00:33:07;;;;;;;54.60;49.10;;;;;;;20.33;100.00;100567.69;4951464;28;20409;-70
2023/06/21 00:35:36;;;;;;;57.13;51.30;;;;;;;20.24;100.00;100574.78;4954896;28;20403;-68
2023/06/21 00:38:06;;;;;;;59.77;53.57;;;;;;;20.27;100.00;100568.75;4959291;28;20508;-71
2023/06/21 00:40:35;;;;;;;61.10;54.70;;;;;;;20.18;100.00;100570.41;4953408;28;20460;-72
2023/06/21 00:43:04;;;;;;;56.30;50.70;;;;;;;20.19;100.00;100564.63;4953573;28;20414;-71
2023/06/21 00:45:38;;;;;;;58.37;52.80;;;;;;;20.34;100.00;100566.56;4954501;28;21037;-71
2023/06/21 00:48:08;;;;;;;56.87;51.07;;;;;;;20.29;100.00;100561.88;4960703;28;20419;-70
2023/06/21 00:50:39;;;;;;;59.10;53.20;;;;;;;20.34;100.00;100559.16;4959592;28;20456;-69
2023/06/21 00:53:10;;;;;;;58.97;52.70;;;;;;;20.34;100.00;100553.66;4955185;28;20423;-72
2023/06/21 00:55:40;;;;;;;58.67;52.40;;;;;;;20.35;100.00;100538.84;4950505;28;20406;-69
2023/06/21 00:58:11;;;;;;;56.27;50.70;;;;;;;20.35;100.00;100533.34;4957138;28;20462;-72
2023/06/21 01:00:41;;;;;;;60.70;54.43;;;;;;;20.34;100.00;100528.94;4956733;28;20435;-70
2023/06/21 01:03:11;;;;;;;56.97;51.43;;;;;;;20.26;100.00;100518.47;4962411;28;20402;-71
2023/06/21 01:05:41;;;;;;;60.03;53.70;;;;;;;20.26;100.00;100507.47;4962732;28;20498;-70
2023/06/21 01:08:22;;;;;;;57.90;52.10;;;;;;;20.28;100.00;100518.22;4957951;28;20861;-70
2023/06/21 01:11:03;;;;;;;56.60;50.83;;;;;;;20.30;100.00;100525.09;4956330;28;20434;-70
2023/06/21 01:13:41;;;;;;;58.00;52.40;;;;;;;20.42;100.00;100529.50;4955345;28;20452;-69
2023/06/21 01:16:14;;;;;;;56.17;50.67;;;;;;;20.36;100.00;100534.16;4960507;28;20440;-71
2023/06/21 01:18:47;;;;;;;56.67;50.83;;;;;;;20.27;100.00;100533.88;4953092;28;20664;-70
2023/06/21 01:21:19;;;;;;;57.20;51.60;;;;;;;20.25;100.00;100533.31;4955825;28;20414;-68
2023/06/21 01:24:13;;;;;;;54.63;49.40;;;;;;;20.15;100.00;100533.28;4952814;28;20413;-70
2023/06/21 01:26:59;;;;;;;55.33;49.90;;;;;;;20.06;100.00;100526.72;4956282;28;20426;-68
2023/06/21 01:29:33;;;;;;;57.30;51.43;;;;;;;20.06;100.00;100528.63;4951624;28;20417;-69
2023/06/21 01:32:03;;;;;;;56.33;50.33;;;;;;;20.16;100.00;100523.97;4953870;28;20483;-69
2023/06/21 01:34:34;;;;;;;57.73;51.90;;;;;;;20.22;100.00;100511.88;4954209;28;20426;-69
2023/06/21 01:37:08;;;;;;;57.97;52.17;;;;;;;20.34;100.00;100515.19;4955087;28;20775;-70
2023/06/21 01:39:37;;;;;;;56.80;51.27;;;;;;;20.70;100.00;100512.41;4957636;28;20414;-70
2023/06/21 01:42:07;;;;;;;53.60;48.40;;;;;;;20.72;100.00;100518.47;4946159;28;21042;-69
2023/06/21 01:44:37;;;;;;;53.53;48.30;;;;;;;20.56;100.00;100517.66;4956665;28;20486;-71
2023/06/21 01:47:10;;;;;;;54.60;49.30;;;;;;;20.50;100.00;100523.44;4956494;28;20425;-71
2023/06/21 01:49:40;;;;;;;53.17;48.00;;;;;;;20.57;100.00;100524.00;4972430;28;20423;-70
2023/06/21 01:52:10;;;;;;;56.73;51.23;;;;;;;20.54;100.00;100530.03;4965056;28;20442;-69
2023/06/21 01:54:42;;;;;;;51.17;46.10;;;;;;;20.46;100.00;100531.41;4963688;28;20418;-69
2023/06/21 01:57:11;;;;;;;52.53;47.60;;;;;;;20.44;100.00;100532.78;4952515;28;20503;-70
2023/06/21 01:59:42;;;;;;;51.20;46.07;;;;;;;20.61;100.00;100538.81;4955475;28;20438;-71
2023/06/21 02:02:12;;;;;;;53.67;48.27;;;;;;;20.65;100.00;100537.16;4962119;28;20793;-69
2023/06/21 02:04:42;;;;;;;51.33;46.50;;;;;;;20.56;100.00;100536.06;4958287;28;20486;-70
2023/06/21 02:07:13;;;;;;;54.40;48.90;;;;;;;20.83;100.00;100531.06;4953963;28;20476;-71
2023/06/21 02:09:44;;;;;;;50.57;45.50;;;;;;;20.70;100.00;100539.91;4955248;28;20430;-69
2023/06/21 02:12:13;;;;;;;53.50;48.40;;;;;;;20.73;100.00;100540.16;4957750;28;20683;-70
2023/06/21 02:14:43;;;;;;;53.20;48.00;;;;;;;20.90;100.00;100544.53;4948534;28;20459;-69
2023/06/21 02:17:12;;;;;;;54.60;49.33;;;;;;;20.72;100.00;100548.72;4955831;28;21055;-70
2023/06/21 02:19:41;;;;;;;51.90;46.57;;;;;;;21.13;100.00;100553.03;4951799;28;20431;-71
2023/06/21 02:22:11;;;;;;;55.20;49.53;;;;;;;21.51;100.00;100551.50;4958666;28;20444;-69
2023/06/21 02:24:40;;;;;;;52.00;47.20;;;;;;;21.65;100.00;100563.53;4953813;28;20417;-71
2023/06/21 02:27:10;;;;;;;54.03;48.63;;;;;;;21.44;100.00;100577.69;4956516;28;20457;-70
2023/06/21 02:29:42;;;;;;;50.67;45.57;;;;;;;21.31;100.00;100597.53;4976252;28;20423;-70
2023/06/21 02:32:11;;;;;;;54.00;48.70;;;;;;;21.34;100.00;100633.59;4953900;28;20953;-70
2023/06/21 02:34:43;;;;;;;46.53;41.67;;;;;;;21.20;100.00;100638.03;4954324;28;20834;-70
2023/06/21 02:37:12;;;;;;;50.03;45.33;;;;;;;21.16;100.00;100635.00;4954220;28;20843;-72
2023/06/21 02:39:41;;;;;;;49.77;44.77;;;;;;;21.17;100.00;100639.41;4962896;28;20412;-69
2023/06/21 02:42:11;;;;;;;51.53;46.60;;;;;;;21.31;100.00;100660.84;4957641;28;20703;-71
2023/06/21 02:44:41;;;;;;;48.87;43.97;;;;;;;21.19;100.00;100658.41;4976110;28;20588;-70
2023/06/21 02:47:11;;;;;;;50.60;45.50;;;;;;;21.11;100.00;100651.50;4961145;28;20977;-70
2023/06/21 02:49:40;;;;;;;50.67;45.30;;;;;;;21.07;100.00;100650.41;4955654;28;20436;-73
2023/06/21 02:52:10;;;;;;;47.67;43.00;;;;;;;21.18;100.00;100654.00;4958762;28;20443;-71
2023/06/21 02:54:39;;;;;;;45.97;41.47;;;;;;;21.17;100.00;100641.34;4964699;28;20784;-70
2023/06/21 02:57:08;;;;;;;47.87;43.17;;;;;;;21.24;100.00;100634.47;4949786;28;20957;-71
2023/06/21 02:59:39;;;;;;;47.67;43.03;;;;;;;21.04;100.00;100612.44;4963489;28;20442;-70
2023/06/21 03:02:09;;;;;;;47.80;43.20;;;;;;;20.94;100.00;100612.47;4957876;28;20435;-70
2023/06/21 03:04:39;;;;;;;47.30;42.37;;;;;;;20.95;100.00;100603.13;4962049;28;20435;-68
2023/06/21 03:07:08;;;;;;;48.87;43.90;;;;;;;21.03;100.00;100594.28;4964319;28;20453;-69
2023/06/21 03:09:37;;;;;;;47.73;42.93;;;;;;;20.89;100.00;100582.22;4958878;28;20531;-70
2023/06/21 03:12:08;;;;;;;47.13;42.07;;;;;;;20.91;100.00;100579.19;4957810;28;20528;-71
2023/06/21 03:14:38;;;;;;;49.60;44.50;;;;;;;21.08;100.00;100572.28;4966504;28;20444;-70
2023/06/21 03:17:10;;;;;;;49.60;44.40;;;;;;;20.97;100.00;100564.31;4961120;28;20474;-70
2023/06/21 03:19:40;;;;;;;49.00;44.50;;;;;;;20.87;100.00;100556.06;4957167;28;20952;-70
2023/06/21 03:22:11;;;;;;;47.43;42.87;;;;;;;21.23;100.00;100558.50;4970886;28;21017;-70
2023/06/21 03:24:41;;;;;;;52.23;45.63;;;;;;;21.34;100.00;100555.72;4959136;28;20810;-71
2023/06/21 03:27:11;;;;;;;52.07;46.90;;;;;;;21.31;100.00;100546.06;4952058;28;20446;-70
2023/06/21 03:29:40;;;;;;;50.00;45.27;;;;;;;21.12;100.00;100542.25;4963934;28;20412;-72
2023/06/21 03:32:10;;;;;;;51.57;46.67;;;;;;;21.12;100.00;100548.59;4957032;28;20458;-72
2023/06/21 03:34:40;;;;;;;52.30;46.87;;;;;;;20.94;100.00;100546.44;4974649;28;20422;-72
2023/06/21 03:37:09;;;;;;;51.23;46.23;;;;;;;21.23;100.00;100554.91;4959264;28;20531;-71
2023/06/21 03:39:39;;;;;;;51.77;46.87;;;;;;;21.10;100.00;100561.81;4958483;28;20531;-71
2023/06/21 03:42:11;;;;;;;46.63;42.23;;;;;;;21.28;100.00;100567.84;4953867;28;20463;-70
2023/06/21 03:44:40;;;;;;;51.90;46.80;;;;;;;21.56;100.00;100578.19;4958713;28;20426;-68
2023/06/21 03:47:10;;;;;;;48.40;43.37;;;;;;;21.71;100.00;100588.28;4952682;28;20433;-70
2023/06/21 03:49:41;;;;;;;50.77;45.67;;;;;;;21.59;100.00;100602.41;4958743;28;20534;-72
2023/06/21 03:52:10;;;;;;;50.60;45.47;;;;;;;21.48;100.00;100606.31;4945387;28;20440;-69
2023/06/21 03:54:40;;;;;;;48.77;44.07;;;;;;;21.44;100.00;100627.25;4952534;28;20418;-71
2023/06/21 03:57:09;;;;;;;48.97;44.47;;;;;;;21.66;100.00;100636.78;4957238;28;20457;-70
2023/06/21 03:59:37;;;;;;;50.03;45.00;;;;;;;21.57;100.00;100626.63;4951988;28;20473;-71
2023/06/21 04:02:07;;;;;;;50.20;45.40;;;;;;;21.45;100.00;100624.19;4955005;28;20437;-71
2023/06/21 04:04:38;;;;;;;52.23;47.13;;;;;;;21.76;100.00;100629.59;4960618;28;20428;-71
2023/06/21 04:07:09;;;;;;;49.37;44.27;;;;;;;21.55;100.00;100626.09;4952229;28;20945;-69
2023/06/21 04:09:38;;;;;;;49.23;44.43;;;;;;;21.41;100.00;100622.28;4972642;28;20417;-71
2023/06/21 04:12:07;;;;;;;50.10;45.23;;;;;;;21.58;100.00;100620.03;4955525;28;21000;-71
2023/06/21 04:14:36;;;;;;;50.87;45.57;;;;;;;21.65;100.00;100624.13;4964444;28;20506;-70
2023/06/21 04:17:06;;;;;;;46.27;41.90;;;;;;;21.82;100.00;100625.72;4960165;28;20469;-72
2023/06/21 04:19:35;;;;;;;49.47;44.67;;;;;;;22.07;100.00;100631.91;4960669;28;20881;-70
2023/06/21 04:22:04;;;;;;;52.37;47.37;;;;;;;21.87;100.00;100626.50;4968502;28;20406;-70
2023/06/21 04:24:36;;;;;;;52.83;47.63;;;;;;;21.66;100.00;100635.97;4958197;28;20461;-69
2023/06/21 04:27:07;;;;;;;52.00;47.10;;;;;;;21.54;100.00;100639.03;4960357;28;20463;-70
2023/06/21 04:29:40;;;;;;;52.77;47.67;;;;;;;21.51;100.00;100660.78;4950421;28;20439;-72
2023/06/21 04:32:09;;;;;;;55.17;49.87;;;;;;;21.55;100.00;100659.13;4961799;28;20930;-71
2023/06/21 04:34:38;;;;;;;52.93;47.37;;;;;;;21.68;100.00;100680.56;4956072;28;20458;-70
2023/06/21 04:37:08;;;;;;;54.47;49.27;;;;;;;21.82;100.00;100700.06;4956389;28;20486;-70
2023/06/21 04:39:38;;;;;;;53.53;48.23;;;;;;;21.91;100.00;100706.66;4954256;28;20457;-71
2023/06/21 04:42:07;;;;;;;53.73;48.60;;;;;;;21.86;100.00;100720.44;4959078;28;20462;-73
2023/06/21 04:44:36;;;;;;;53.60;48.40;;;;;;;22.00;100.00;100729.78;4960689;28;20930;-72
2023/06/21 04:47:05;;;;;;;52.13;47.23;;;;;;;22.32;100.00;100737.59;4953834;28;20985;-72
2023/06/21 04:49:35;;;;;;;54.83;49.50;;;;;;;22.29;100.00;100738.19;4961998;28;20945;-71
2023/06/21 04:52:04;;;;;;;55.13;49.77;;;;;;;22.50;100.00;100731.47;4952486;28;20409;-71
2023/06/21 04:54:33;;;;;;;55.57;49.47;;;;;;;22.50;100.00;100740.56;4950201;28;20435;-69
2023/06/21 04:57:03;;;;;;;57.33;51.67;;;;;;;22.54;100.00;100740.81;4948483;28;20430;-72
2023/06/21 04:59:32;;;;;;;55.97;50.37;;;;;;;22.58;100.00;100735.53;4952373;28;20456;-71
2023/06/21 05:02:01;;;;;;;54.13;49.00;;;;;;;22.82;100.00;100736.50;4960520;28;20438;-71
2023/06/21 05:04:31;;;;;;;58.43;52.70;;;;;;;22.94;100.00;100732.28;4966257;28;20794;-71
2023/06/21 05:07:00;;;;;;;55.90;50.17;;;;;;;23.06;100.00;100725.56;4958827;28;20525;-71
2023/06/21 05:09:29;;;;;;;56.33;50.70;;;;;;;23.09;100.00;100731.31;4952988;28;20450;-71
2023/06/21 05:11:57;;;;;;;54.83;49.40;;;;;;;23.06;100.00;100720.03;4959025;28;20422;-70
2023/06/21 05:14:28;;;;;;;51.90;46.87;;;;;;;23.20;100.00;100726.53;4951537;28;20450;-71
2023/06/21 05:16:58;;;;;;;54.37;49.27;;;;;;;23.31;100.00;100722.56;4960271;28;20459;-71
2023/06/21 05:19:27;;;;;;;51.47;46.63;;;;;;;23.35;99.03;100718.09;4959214;28;20476;-72
2023/06/21 05:21:56;;;;;;;49.80;45.03;;;;;;;23.46;99.92;100713.34;4952362;28;20447;-71
2023/06/21 05:24:25;;;;;;;50.87;45.37;;;;;;;23.59;97.61;100727.28;4950557;28;20439;-71
2023/06/21 05:26:54;;;;;;;49.47;44.87;;;;;;;23.37;96.64;100729.69;4955233;28;20541;-70
2023/06/21 05:29:24;;;;;;;50.87;45.90;;;;;;;23.69;96.69;100729.94;4950012;28;20473;-72
2023/06/21 05:31:54;;;;;;;46.80;42.20;;;;;;;24.17;96.05;100732.72;4956302;28;20473;-71
2023/06/21 05:34:23;;;;;;;47.03;42.43;;;;;;;24.96;88.33;100736.56;4957146;28;20538;-71
2023/06/21 05:36:52;;;;;;;44.57;40.37;;;;;;;26.32;80.17;100731.25;4957653;28;20590;-70
2023/06/21 05:39:21;;;;;;;45.20;40.90;;;;;;;26.56;76.25;100730.16;4951825;28;20464;-69
2023/06/21 05:41:50;;;;;;;47.57;43.10;;;;;;;25.97;81.17;100731.97;4961450;28;21027;-70
2023/06/21 05:44:19;;;;;;;43.23;39.30;;;;;;;25.53;82.70;100747.19;4954029;28;20891;-69
2023/06/21 05:46:49;;;;;;;48.03;43.53;;;;;;;25.23;88.03;100758.81;4958221;28;20451;-70
2023/06/21 05:49:19;;;;;;;42.40;38.30;;;;;;;24.87;88.15;100769.66;4954283;28;20520;-70
2023/06/21 05:51:48;;;;;;;46.73;42.30;;;;;;;24.56;90.46;100771.16;4952346;28;20853;-74
2023/06/21 05:54:17;;;;;;;44.40;40.20;;;;;;;24.41;91.50;100763.91;4953804;28;20413;-70
2023/06/21 05:56:46;;;;;;;44.77;40.73;;;;;;;24.62;92.35;100773.59;4947259;28;20430;-69
2023/06/21 05:59:15;;;;;;;43.90;40.00;;;;;;;24.67;90.52;100770.75;4937566;28;20595;-70
2023/06/21 06:01:47;;;;;;;45.30;41.17;;;;;;;24.69;90.09;100779.53;4931171;28;20549;-69
2023/06/21 06:04:18;;;;;;;46.17;41.77;;;;;;;24.79;89.57;100775.81;4933068;28;20408;-70
2023/06/21 06:06:47;;;;;;;48.73;44.10;;;;;;;24.56;91.87;100769.22;4947901;28;20861;-71
2023/06/21 06:09:16;;;;;;;46.10;41.70;;;;;;;24.06;92.39;100772.66;4933408;28;20414;-69
2023/06/21 06:11:45;;;;;;;46.60;41.93;;;;;;;23.92;92.70;100777.19;4998483;23;20501;-83
2023/06/21 06:14:14;;;;;;;44.57;40.57;;;;;;;23.71;92.59;100771.09;4983635;28;20446;-83
2023/06/21 06:16:44;;;;;;;45.10;40.90;;;;;;;24.16;93.59;100784.41;4984072;28;21089;-80
2023/06/21 06:19:13;;;;;;;48.17;43.53;;;;;;;24.62;89.79;100775.53;4994070;28;20444;-80
2023/06/21 06:21:44;;;;;;;46.27;41.67;;;;;;;24.69;88.37;100773.19;4982825;28;20481;-83
2023/06/21 06:24:14;;;;;;;45.80;41.50;;;;;;;24.67;88.83;100783.75;4969126;28;20434;-82
2023/06/21 06:29:44;;;;;;;46.87;42.37;;;;;;;25.05;86.48;100779.06;4973294;28;20488;-83
2023/06/21 06:32:13;;;;;;;42.67;38.73;;;;;;;24.86;84.88;100783.75;4973768;28;20472;-82
2023/06/21 06:34:44;;;;;;;43.30;38.70;;;;;;;24.94;85.00;100791.41;4973259;28;20867;-81
2023/06/21 06:37:14;;;;;;;41.23;37.20;;;;;;;25.04;85.90;100796.78;4970646;28;20493;-81
2023/06/21 06:39:50;;;;;;;42.97;38.50;;;;;;;25.21;84.06;100802.63;4974713;28;20502;-83
2023/06/21 06:42:19;;;;;;;39.53;35.57;;;;;;;24.78;82.66;100798.28;4975322;28;20478;-80
2023/06/21 06:44:53;;;;;;;38.70;34.90;;;;;;;24.42;85.57;100801.50;4974172;28;20430;-81
2023/06/21 06:47:22;;;;;;;42.47;38.63;;;;;;;24.48;85.94;100794.81;4967072;28;20544;-82
2023/06/21 06:49:51;;;;;;;42.47;38.07;;;;;;;24.76;86.02;100794.97;4964302;28;20423;-83
2023/06/21 06:52:21;;;;;;;40.10;36.20;;;;;;;25.16;84.77;100802.69;4965178;28;20504;-81
2023/06/21 06:54:50;;;;;;;42.80;38.80;;;;;;;25.58;82.37;100806.44;4965887;28;20442;-82
2023/06/21 06:57:19;;;;;;;39.43;35.83;;;;;;;25.57;82.02;100807.56;4965629;28;20882;-83
2023/06/21 07:00:08;;;;;;;40.90;35.20;;;;;;;25.09;83.43;100813.31;4969044;28;20853;-80
2023/06/21 07:02:38;;;;;;;37.50;34.13;;;;;;;24.95;83.82;100815.19;4969985;28;20474;-82
2023/06/21 07:05:07;;;;;;;38.87;35.37;;;;;;;25.25;83.28;100817.50;4969432;28;20438;-83
2023/06/21 07:07:38;;;;;;;36.17;32.70;;;;;;;25.18;81.49;100814.28;4966919;28;20463;-83
2023/06/21 07:10:08;;;;;;;35.77;32.47;;;;;;;25.04;82.84;100816.16;4969504;28;20423;-82
2023/06/21 07:12:41;;;;;;;33.83;30.73;;;;;;;25.38;81.02;100815.88;4969718;28;20562;-80
2023/06/21 07:15:13;;;;;;;34.73;31.23;;;;;;;25.33;81.44;100822.34;4968027;28;20533;-80
2023/06/21 07:17:42;;;;;;;32.50;29.23;;;;;;;25.05;81.78;100828.88;4983670;28;20411;-79
2023/06/21 07:20:12;;;;;;;32.10;29.10;;;;;;;25.13;81.57;100830.13;4983127;28;20473;-82
2023/06/21 07:22:42;;;;;;;30.67;27.70;;;;;;;25.20;80.35;100831.41;4970065;28;20487;-83
2023/06/21 07:25:12;;;;;;;28.00;25.40;;;;;;;25.83;80.51;100844.78;4968444;28;20439;-81
2023/06/21 07:27:41;;;;;;;28.57;26.03;;;;;;;25.91;79.56;100853.22;4974033;28;20535;-82
2023/06/21 07:30:11;;;;;;;28.70;26.00;;;;;;;26.19;78.20;100854.06;4976867;28;20735;-82
2023/06/21 07:32:40;;;;;;;30.03;27.27;;;;;;;26.46;77.61;100852.47;4974629;28;20538;-79
2023/06/21 07:35:10;;;;;;;36.43;33.20;;;;;;;26.35;75.54;100861.00;4977601;28;20440;-81
2023/06/21 07:37:38;;;;;;;29.23;26.70;;;;;;;25.75;77.64;100853.81;4992663;28;20447;-81
2023/06/21 07:40:11;;;;;;;26.33;23.93;;;;;;;25.85;77.21;100871.06;4970926;28;21069;-83
2023/06/21 07:42:40;;;;;;;32.90;27.30;;;;;;;25.86;78.35;100871.88;4974726;28;21239;-83
2023/06/21 07:45:10;;;;;;;28.93;26.27;;;;;;;26.11;76.74;100868.66;4976071;28;20451;-83
2023/06/21 07:47:40;;;;;;;26.17;23.77;;;;;;;26.14;76.66;100879.13;4980765;28;20545;-81
2023/06/21 07:50:10;;;;;;;26.03;23.70;;;;;;;26.08;75.82;100880.38;4975650;28;20419;-80
2023/06/21 07:52:50;;;;;;;26.33;23.17;;;;;;;25.91;75.99;100877.34;4979874;28;20473;-82
2023/06/21 07:55:22;;;;;;;26.17;22.50;;;;;;;25.83;76.40;100883.59;4973570;28;20451;-81
2023/06/21 07:57:51;;;;;;;23.13;21.03;;;;;;;26.13;74.46;100883.06;4974435;28;20522;-82
2023/06/21 08:00:20;;;;;;;24.07;21.77;;;;;;;25.78;76.63;100875.38;4962542;28;20471;-83
2023/06/21 08:02:52;;;;;;;23.03;20.87;;;;;;;25.83;77.21;100880.81;4968491;28;20490;-83
2023/06/21 08:05:21;;;;;;;22.57;20.30;;;;;;;25.69;76.97;100874.44;4961152;28;20439;-82
2023/06/21 08:07:50;;;;;;;24.23;22.07;;;;;;;25.92;76.26;100888.13;4967079;28;20522;-82
2023/06/21 08:13:59;;;;;;;25.93;20.37;;;;;;;26.38;74.47;100898.41;4983134;28;20481;-82
2023/06/21 08:37:36;;;;;;;17.80;16.30;;;;;;;27.55;67.56;100913.38;4928530;28;20437;-79
2023/06/21 08:41:10;;;;;;;19.00;17.33;;;;;;;27.74;66.21;100911.22;4981627;28;20478;-81
2023/06/21 08:52:19;;;;;;;17.40;15.77;;;;;;;27.91;64.25;100924.44;4979086;28;20479;-81
2023/06/21 08:54:58;;;;;;;17.13;15.73;;;;;;;27.81;64.65;100922.72;4983473;28;20447;-82
2023/06/21 08:57:34;;;;;;;16.83;15.43;;;;;;;27.51;65.91;100926.25;4983397;28;20435;-80
2023/06/21 09:00:19;;;;;;;18.50;16.90;;;;;;;27.33;67.64;100930.00;4982787;28;20456;-80
2023/06/21 09:03:18;;;;;;;18.50;16.63;;;;;;;27.89;65.96;100932.25;4981932;28;20426;-80
2023/06/21 09:05:53;;;;;;;18.50;16.80;;;;;;;28.12;65.83;100933.09;4982723;28;20460;-79
2023/06/21 09:08:54;;;;;;;16.23;14.90;;;;;;;27.82;66.61;100934.69;4989274;28;20471;-81
2023/06/21 09:11:37;;;;;;;17.57;16.10;;;;;;;27.04;66.62;100953.41;4968264;28;20467;-81
2023/06/21 09:14:07;;;;;;;17.57;15.70;;;;;;;27.42;65.33;100947.56;4964145;28;20490;-81
2023/06/21 09:16:39;;;;;;;17.80;16.17;;;;;;;27.57;65.06;100944.47;4954607;28;20459;-83
2023/06/21 09:19:09;;;;;;;17.80;16.30;;;;;;;27.74;65.49;100938.22;4960432;28;20438;-82
2023/06/21 09:21:40;;;;;;;14.90;13.50;;;;;;;28.34;62.91;100947.78;4963614;28;20550;-82
2023/06/21 09:24:09;;;;;;;17.20;14.97;;;;;;;28.56;62.02;100944.13;4963978;28;20434;-82
2023/06/21 09:26:40;;;;;;;15.97;14.57;;;;;;;28.73;61.22;100952.56;4960270;28;20463;-82
2023/06/21 09:29:09;;;;;;;15.43;13.77;;;;;;;28.33;62.29;100950.88;4959243;28;20458;-83
2023/06/21 09:31:38;;;;;;;14.20;12.90;;;;;;;28.34;62.86;100967.28;4959280;28;20538;-83
2023/06/21 09:34:07;;;;;;;15.60;13.50;;;;;;;28.24;62.15;100961.16;4961448;28;20436;-80
2023/06/21 09:36:37;;;;;;;14.73;13.60;;;;;;;28.39;61.01;100971.88;4961261;28;20442;-82
2023/06/21 09:39:10;;;;;;;15.53;14.10;;;;;;;28.32;60.70;100965.97;4967842;28;20482;-84
2023/06/21 09:41:41;;;;;;;15.97;13.70;;;;;;;27.83;63.03;100964.97;4964173;28;21024;-83
2023/06/21 09:44:10;;;;;;;13.70;12.60;;;;;;;28.26;62.58;100967.22;4964241;28;20436;-82
2023/06/21 09:46:40;;;;;;;14.23;12.93;;;;;;;28.52;60.69;100970.94;4960669;28;20423;-86
2023/06/21 09:49:10;;;;;;;14.90;13.60;;;;;;;28.57;60.72;100973.59;4963353;28;20817;-82
2023/06/21 09:51:44;;;;;;;14.13;13.03;;;;;;;29.20;60.25;100964.81;4966410;28;20444;-84
2023/06/21 09:54:13;;;;;;;13.47;12.37;;;;;;;29.06;58.29;100975.28;4977630;28;20470;-85
2023/06/21 09:56:43;;;;;;;13.63;12.53;;;;;;;29.10;58.26;100975.44;4966579;28;20510;-85
2023/06/21 09:59:16;;;;;;;13.93;12.83;;;;;;;28.80;58.53;100971.63;4967864;28;20521;-84
2023/06/21 10:01:47;;;;;;;14.00;12.80;;;;;;;28.72;59.81;100973.22;4973142;28;20466;-81
2023/06/21 10:09:49;;;;;;;14.10;12.70;;;;;;;29.85;56.59;100971.44;4907137;28;20486;-84
2023/06/21 10:12:51;;;;;;;13.13;11.93;;;;;;;29.24;56.14;100970.59;4963669;28;20828;-82
2023/06/21 10:15:49;;;;;;;13.87;12.40;;;;;;;28.43;58.24;100975.66;4973582;28;20586;-84
2023/06/21 10:18:18;;;;;;;15.20;13.80;;;;;;;28.30;59.60;100962.66;4969493;28;20426;-82
2023/06/21 10:20:53;;;;;;;13.77;12.53;;;;;;;28.69;59.96;100965.47;4965739;28;20443;-83
2023/06/21 10:24:14;;;;;;;13.60;12.30;;;;;;;29.61;55.80;100988.69;4970025;28;20470;-83
2023/06/21 10:27:20;;;;;;;13.70;12.50;;;;;;;29.15;54.93;100969.72;4971053;28;20452;-83
2023/06/21 10:30:37;;;;;;;14.23;12.93;;;;;;;29.38;56.83;100988.00;4963899;28;20974;-83
2023/06/21 10:40:13;;;;;;;13.00;11.90;;;;;;;29.80;52.40;100995.56;4969453;28;20564;-83
2023/06/21 10:43:10;;;;;;;12.23;11.33;;;;;;;29.41;53.44;100987.34;4965089;28;20486;-84
2023/06/21 10:46:02;;;;;;;11.73;10.70;;;;;;;29.09;52.40;100985.81;4977920;28;20428;-83
2023/06/21 10:48:48;;;;;;;13.40;12.13;;;;;;;29.12;54.19;100981.53;4980217;28;20955;-83
2023/06/21 10:51:46;;;;;;;13.17;12.13;;;;;;;29.41;53.72;100986.53;4981973;28;20478;-83
2023/06/21 10:54:46;;;;;;;13.10;11.70;;;;;;;29.59;53.43;100989.00;4969001;28;20475;-84
2023/06/21 10:57:51;;;;;;;11.90;10.83;;;;;;;28.68;54.47;100997.25;4980950;28;20494;-82
2023/06/21 11:03:58;;;;;;;;;;;;;;;;;;;;;
2023/06/21 11:07:16;;;;;;;11.33;10.43;;;;;;;29.89;52.09;101001.19;4968011;28;20813;-84
2023/06/21 11:27:36;;;;;;;12.97;11.87;;;;;;;29.49;52.44;100994.06;4917356;29;20473;-82
2023/06/21 11:30:26;;;;;;;11.67;10.53;;;;;;;29.28;53.68;101002.22;4921058;29;20441;-83
2023/06/21 11:33:48;;;;;;;12.10;11.13;;;;;;;29.07;54.63;100999.22;4925649;29;20518;-83
2023/06/21 11:40:14;;;;;;;12.07;10.97;;;;;;;28.66;54.61;101009.84;4873108;29;20489;-83
2023/06/21 11:42:52;;;;;;;12.10;9.73;;;;;;;28.64;54.59;101021.31;4900495;29;20485;-83
2023/06/21 11:45:26;;;;;;;12.37;10.87;;;;;;;28.43;55.28;101014.63;4911734;29;20456;-83
2023/06/21 11:48:08;;;;;;;9.83;9.03;;;;;;;28.39;56.33;101021.97;4923752;29;20807;-83
2023/06/21 11:50:42;;;;;;;11.20;8.77;;;;;;;28.65;55.56;101020.16;4916424;29;20449;-82
2023/06/21 11:53:24;;;;;;;11.80;10.27;;;;;;;28.69;56.24;101026.72;4891353;29;21207;-83
2023/06/21 11:55:56;;;;;;;10.77;9.67;;;;;;;28.71;56.70;101041.19;4909487;28;20445;-81
2023/06/21 11:58:28;;;;;;;9.73;8.83;;;;;;;29.08;54.71;101033.47;4942856;28;21131;-83
2023/06/21 12:00:58;;;;;;;11.33;10.43;;;;;;;28.98;55.39;101039.34;4973233;28;20447;-82
2023/06/21 12:03:28;;;;;;;11.20;10.13;;;;;;;29.22;54.01;101037.78;4971569;28;20483;-82
2023/06/21 12:05:59;;;;;;;10.93;9.90;;;;;;;29.59;52.68;101039.19;4971492;28;20426;-83
2023/06/21 12:08:33;;;;;;;10.70;9.80;;;;;;;29.44;52.98;101047.19;4968952;28;20439;-83
2023/06/21 12:11:05;;;;;;;13.60;10.33;;;;;;;29.90;52.31;101049.44;4967887;28;20438;-84
2023/06/21 12:13:39;;;;;;;18.67;10.43;;;;;;;30.00;52.48;101052.72;4973437;28;21042;-84
2023/06/21 12:16:25;;;;;;;10.73;8.87;;;;;;;30.54;51.62;101054.00;4981483;28;21065;-83
2023/06/21 12:19:22;;;;;;;10.50;9.53;;;;;;;30.48;50.91;101044.16;4965049;28;20844;-83
2023/06/21 12:21:59;;;;;;;9.37;8.50;;;;;;;30.74;50.11;101051.63;4967560;28;20490;-84
2023/06/21 12:24:29;;;;;;;9.60;8.70;;;;;;;30.64;50.69;101053.59;4969984;28;20432;-85
2023/06/21 12:27:00;;;;;;;10.07;9.17;;;;;;;30.35;50.93;101050.72;4968584;28;20448;-84
2023/06/21 12:29:32;;;;;;;10.37;8.97;;;;;;;30.81;49.69;101054.72;4979965;28;20438;-84
2023/06/21 12:32:04;;;;;;;9.47;8.63;;;;;;;30.91;48.99;101057.16;4995791;28;20454;-86
2023/06/21 12:34:35;;;;;;;8.80;8.00;;;;;;;31.17;49.64;101057.06;5001772;28;20447;-84
2023/06/21 12:37:18;;;;;;;9.63;8.57;;;;;;;31.25;47.61;101067.38;4968994;28;20536;-85
2023/06/21 12:41:10;;;;;;;7.60;6.90;;;;;;;31.30;46.34;101062.41;4963054;29;20447;-85
2023/06/21 13:00:35;;;;;;;9.20;8.40;;;;;;;29.58;50.11;101071.00;4967180;28;20501;-72
2023/06/21 13:03:05;;;;;;;8.57;7.77;;;;;;;28.95;50.21;101069.47;4968295;28;20469;-73
2023/06/21 13:05:34;;;;;;;8.47;7.77;;;;;;;29.45;50.10;101076.72;4968908;28;20513;-74